createdAt,value
2022-11-16T00:02:13.953Z,102049.06
2022-11-16T00:04:41.857Z,102034.84
2022-11-16T00:07:09.699Z,102035.03
2022-11-16T00:09:37.347Z,102028.13
2022-11-16T00:12:07.603Z,102034.56
2022-11-16T00:14:36.504Z,102035.25
2022-11-16T00:17:05.184Z,102031.22
2022-11-16T00:19:32.779Z,102024.81
2022-11-16T00:22:00.354Z,102020.41
2022-11-16T00:24:27.898Z,102010.56
2022-11-16T00:26:56.475Z,102004.41
2022-11-16T00:29:26.251Z,102005.94
2022-11-16T00:31:54.495Z,102009.53
2022-11-16T00:34:23.829Z,102010.97
2022-11-16T00:36:51.872Z,102006.28
2022-11-16T00:39:19.730Z,101999.78
2022-11-16T00:41:48.134Z,101999.88
2022-11-16T00:44:15.886Z,102000.81
2022-11-16T00:46:43.611Z,101998.41
2022-11-16T00:49:11.705Z,101996.13
2022-11-16T00:51:39.271Z,101998.09
2022-11-16T00:54:09.656Z,101982.19
2022-11-16T00:56:38.271Z,101988.47
2022-11-16T00:59:07.100Z,101971.81
2022-11-16T01:01:34.734Z,101988.06
2022-11-16T01:04:02.696Z,101974.22
2022-11-16T01:06:30.192Z,101983.75
2022-11-16T01:08:57.688Z,101981.13
2022-11-16T01:11:43.402Z,101990.97
2022-11-16T01:14:10.935Z,101989.63
2022-11-16T01:16:38.685Z,101981.22
2022-11-16T01:19:06.491Z,101961.56
2022-11-16T01:21:59.408Z,101964.47
2022-11-16T01:24:27.899Z,101953.28
2022-11-16T01:26:57.256Z,101958.81
2022-11-16T01:29:30.501Z,101968.34
2022-11-16T01:32:01.533Z,101958.00
2022-11-16T01:34:29.107Z,101961.84
2022-11-16T01:37:03.483Z,101970.31
2022-11-16T01:39:34.915Z,101968.63
2022-11-16T01:42:08.283Z,101951.69
2022-11-16T01:44:36.214Z,101939.22
2022-11-16T01:47:17.094Z,101941.94
2022-11-16T01:49:50.052Z,101941.41
2022-11-16T01:52:23.923Z,101939.22
2022-11-16T01:54:55.884Z,101936.88
2022-11-16T02:16:15.086Z,101933.00
2022-11-16T02:19:40.747Z,101939.16
2022-11-16T02:22:29.961Z,101947.94
2022-11-16T02:25:08.412Z,101936.22
2022-11-16T02:27:36.566Z,101947.09
2022-11-16T02:30:05.903Z,101937.72
2022-11-16T02:32:42.665Z,101942.09
2022-11-16T02:35:14.435Z,101938.66
2022-11-16T02:37:51.546Z,101935.09
2022-11-16T02:40:22.863Z,101929.41
2022-11-16T02:42:58.473Z,101929.31
2022-11-16T02:45:30.769Z,101918.88
2022-11-16T02:48:03.511Z,101919.63
2022-11-16T02:50:33.936Z,101913.72
2022-11-16T02:53:01.632Z,101915.50
2022-11-16T02:55:38.611Z,101905.28
2022-11-16T02:58:10.062Z,101903.69
2022-11-16T03:01:10.554Z,101902.28
2022-11-16T03:03:56.810Z,101906.06
2022-11-16T03:06:29.400Z,101899.16
2022-11-16T03:09:04.327Z,101901.03
2022-11-16T03:11:55.785Z,101898.59
2022-11-16T03:14:26.634Z,101896.00
2022-11-16T03:16:59.379Z,101892.66
2022-11-16T03:19:42.767Z,101893.59
2022-11-16T03:22:41.703Z,101893.94
2022-11-16T03:25:12.498Z,101885.34
2022-11-16T03:28:06.351Z,101888.06
2022-11-16T03:30:47.877Z,101887.44
2022-11-16T03:33:26.101Z,101878.13
2022-11-16T03:35:59.499Z,101891.16
2022-11-16T03:38:33.822Z,101883.53
2022-11-16T03:41:07.389Z,101881.09
2022-11-16T03:43:37.203Z,101888.22
2022-11-16T03:46:08.809Z,101889.22
2022-11-16T03:48:38.371Z,101886.53
2022-11-16T03:51:13.362Z,101879.63
2022-11-16T03:53:41.727Z,101877.97
2022-11-16T03:56:11.088Z,101877.22
2022-11-16T03:58:39.631Z,101874.69
2022-11-16T04:01:07.382Z,101853.47
2022-11-16T04:03:35.108Z,101874.50
2022-11-16T04:06:21.053Z,101862.28
2022-11-16T04:09:07.770Z,101871.06
2022-11-16T04:12:00.355Z,101854.66
2022-11-16T04:14:47.246Z,101856.97
2022-11-16T04:17:38.232Z,101855.72
2022-11-16T04:20:24.713Z,101858.75
2022-11-16T04:23:16.516Z,101869.19
2022-11-16T04:25:47.183Z,101867.78
2022-11-16T04:28:20.383Z,101862.03
2022-11-16T04:31:16.224Z,101851.69
2022-11-16T04:34:28.921Z,101844.97
2022-11-16T04:37:17.843Z,101858.88
2022-11-16T04:39:45.697Z,101859.78
2022-11-16T04:42:20.124Z,101849.41
2022-11-16T04:45:09.664Z,101834.41
2022-11-16T04:47:44.801Z,101826.50
2022-11-16T04:50:13.113Z,101818.16
2022-11-16T04:52:42.199Z,101823.09
2022-11-16T04:55:13.104Z,101818.59
2022-11-16T04:57:41.365Z,101812.75
2022-11-16T05:00:09.525Z,101813.50
2022-11-16T05:02:39.464Z,101789.63
2022-11-16T05:05:07.505Z,101811.22
2022-11-16T05:07:36.797Z,101809.00
2022-11-16T05:10:37.778Z,101806.41
2022-11-16T05:13:05.249Z,101805.03
2022-11-16T05:15:33.932Z,101816.75
2022-11-16T05:18:01.478Z,101797.06
2022-11-16T05:20:48.681Z,101796.22
2022-11-16T05:23:34.583Z,101800.41
2022-11-16T05:26:08.057Z,101799.13
2022-11-16T05:28:35.763Z,101798.84
2022-11-16T05:31:03.603Z,101799.56
2022-11-16T05:33:33.429Z,101806.13
2022-11-16T05:36:01.164Z,101785.94
2022-11-16T05:38:28.754Z,101787.38
2022-11-16T05:40:59.244Z,101790.63
2022-11-16T05:43:29.898Z,101794.69
2022-11-16T05:46:10.338Z,101771.84
2022-11-16T05:48:39.029Z,101779.66
2022-11-16T05:51:07.775Z,101776.72
2022-11-16T05:53:35.749Z,101768.31
2022-11-16T05:56:03.822Z,101754.06
2022-11-16T05:58:36.056Z,101759.78
2022-11-16T06:01:04.550Z,101754.09
2022-11-16T06:03:33.216Z,101758.66
2022-11-16T06:06:01.095Z,101756.28
2022-11-16T06:08:30.720Z,101756.91
2022-11-16T06:11:05.707Z,101750.75
2022-11-16T06:13:37.257Z,101747.56
2022-11-16T06:16:08.305Z,101752.09
2022-11-16T06:18:41.444Z,101735.66
2022-11-16T06:21:09.711Z,101744.75
2022-11-16T06:23:37.732Z,101729.28
2022-11-16T06:26:06.741Z,101722.09
2022-11-16T06:28:36.070Z,101729.94
2022-11-16T06:31:04.755Z,101727.91
2022-11-16T06:33:36.543Z,101724.50
2022-11-16T06:36:08.683Z,101697.25
2022-11-16T06:38:37.632Z,101722.41
2022-11-16T06:41:05.505Z,101690.34
2022-11-16T06:43:38.728Z,101696.47
2022-11-16T06:46:11.610Z,101713.81
2022-11-16T06:48:40.551Z,101698.66
2022-11-16T06:51:12.156Z,101699.19
2022-11-16T06:53:45.198Z,101696.44
2022-11-16T06:56:15.836Z,101693.59
2022-11-16T06:58:53.508Z,101680.53
2022-11-16T07:01:22.253Z,101677.88
2022-11-16T07:03:51.259Z,101671.09
2022-11-16T07:06:19.705Z,101671.63
2022-11-16T07:08:47.291Z,101683.03
2022-11-16T07:11:20.413Z,101676.25
2022-11-16T07:13:51.265Z,101684.44
2022-11-16T07:16:18.991Z,101669.78
2022-11-16T07:18:56.937Z,101652.88
2022-11-16T07:21:25.951Z,101647.59
2022-11-16T07:23:55.830Z,101647.78
2022-11-16T07:26:24.463Z,101645.00
2022-11-16T07:29:01.070Z,101647.66
2022-11-16T07:31:29.507Z,101645.31
2022-11-16T07:34:17.237Z,101642.31
2022-11-16T07:36:50.487Z,101629.91
2022-11-16T07:39:18.277Z,101636.38
2022-11-16T07:41:47.253Z,101630.75
2022-11-16T07:44:25.219Z,101631.25
2022-11-16T07:47:05.867Z,101617.25
2022-11-16T07:49:35.488Z,101620.97
2022-11-16T07:52:24.459Z,101618.34
2022-11-16T07:55:07.117Z,101613.09
2022-11-16T07:57:35.394Z,101607.94
2022-11-16T08:00:07.162Z,101601.44
2022-11-16T08:02:56.461Z,101587.16
2022-11-16T08:05:24.640Z,101589.38
2022-11-16T08:07:52.319Z,101582.00
2022-11-16T08:10:23.747Z,101575.59
2022-11-16T08:12:55.107Z,101577.97
2022-11-16T08:15:25.893Z,101557.97
2022-11-16T08:17:53.824Z,101580.00
2022-11-16T08:20:22.453Z,101566.69
2022-11-16T08:22:51.812Z,101572.72
2022-11-16T08:25:19.583Z,101565.66
2022-11-16T08:27:48.036Z,101563.13
2022-11-16T08:30:18.191Z,101565.63
2022-11-16T08:32:46.315Z,101563.69
2022-11-16T08:35:15.528Z,101562.31
2022-11-16T08:37:44.406Z,101547.56
2022-11-16T08:40:12.603Z,101554.03
2022-11-16T08:42:43.908Z,101552.47
2022-11-16T08:45:12.853Z,101537.66
2022-11-16T08:47:41.704Z,101542.34
2022-11-16T08:50:26.904Z,101532.91
2022-11-16T08:52:54.521Z,101522.69
2022-11-16T08:55:24.296Z,101523.47
2022-11-16T08:57:52.477Z,101534.28
2022-11-16T09:00:20.444Z,101514.22
2022-11-16T09:02:48.036Z,101518.44
2022-11-16T09:05:16.454Z,101505.69
2022-11-16T09:07:46.006Z,101502.22
2022-11-16T09:10:14.499Z,101500.34
2022-11-16T09:12:54.876Z,101499.72
2022-11-16T09:15:22.852Z,101500.78
2022-11-16T09:17:55.314Z,101492.38
2022-11-16T09:20:23.246Z,101491.84
2022-11-16T09:22:50.812Z,101490.22
2022-11-16T09:25:19.420Z,101488.13
2022-11-16T09:27:46.983Z,101472.34
2022-11-16T09:30:17.791Z,101477.34
2022-11-16T09:32:45.266Z,101473.50
2022-11-16T09:35:12.937Z,101466.84
2022-11-16T09:37:40.520Z,101453.88
2022-11-16T09:43:07.170Z,101455.25
2022-11-16T09:46:02.719Z,101436.00
2022-11-16T09:48:36.201Z,101431.63
2022-11-16T09:51:09.297Z,101424.69
2022-11-16T09:54:12.106Z,101418.84
2022-11-16T09:56:42.699Z,101421.63
2022-11-16T09:59:18.495Z,101426.41
2022-11-16T10:02:23.964Z,101440.00
2022-11-16T10:05:03.244Z,101435.41
2022-11-16T10:07:42.872Z,101423.72
2022-11-16T10:10:35.202Z,101416.91
2022-11-16T10:13:02.677Z,101418.69
2022-11-16T10:15:55.092Z,101416.91
2022-11-16T10:18:37.097Z,101415.22
2022-11-16T10:21:23.922Z,101429.31
2022-11-16T10:24:02.093Z,101414.13
2022-11-16T10:26:35.604Z,101415.13
2022-11-16T10:29:26.335Z,101410.47
2022-11-16T10:32:05.749Z,101417.88
2022-11-16T10:34:54.879Z,101401.19
2022-11-16T10:37:28.023Z,101409.63
2022-11-16T10:42:45.712Z,101404.84
2022-11-16T10:45:30.705Z,101397.44
2022-11-16T10:48:15.485Z,101393.94
2022-11-16T10:50:48.322Z,101398.59
2022-11-16T10:53:26.183Z,101388.94
2022-11-16T10:56:18.059Z,101384.47
2022-11-16T10:59:00.666Z,101380.34
2022-11-16T11:01:34.574Z,101384.34
2022-11-16T11:04:29.826Z,101399.22
2022-11-16T11:07:01.505Z,101380.47
2022-11-16T11:09:39.166Z,101384.91
2022-11-16T11:12:36.894Z,101375.69
2022-11-16T11:15:27.405Z,101376.34
2022-11-16T11:18:12.454Z,101371.38
2022-11-16T11:20:44.664Z,101363.91
2022-11-16T11:23:22.678Z,101367.41
2022-11-16T11:25:57.432Z,101364.28
2022-11-16T11:28:34.219Z,101361.63
2022-11-16T11:31:07.633Z,101354.00
2022-11-16T11:33:39.502Z,101352.56
2022-11-16T11:36:32.593Z,101350.06
2022-11-16T11:39:16.444Z,101336.69
2022-11-16T11:41:46.171Z,101334.34
2022-11-16T11:44:13.665Z,101339.47
2022-11-16T11:47:42.468Z,101318.78
2022-11-16T11:49:50.203Z,101317.13
2022-11-16T11:52:25.685Z,101315.63
2022-11-16T11:54:56.149Z,101312.19
2022-11-16T11:57:25.977Z,101315.00
2022-11-16T11:59:55.560Z,101311.16
2022-11-16T12:02:53.586Z,101310.19
2022-11-16T12:05:20.973Z,101298.75
2022-11-16T12:08:18.462Z,101302.38
2022-11-16T12:11:04.447Z,101308.50
2022-11-16T12:14:02.615Z,101314.94
2022-11-16T12:16:47.955Z,101298.72
2022-11-16T12:19:15.385Z,101293.41
2022-11-16T12:22:12.105Z,101289.25
2022-11-16T12:25:26.960Z,101283.66
2022-11-16T12:28:04.691Z,101281.16
2022-11-16T12:30:38.448Z,101277.69
2022-11-16T12:33:18.517Z,101269.25
2022-11-16T12:36:03.047Z,101256.53
2022-11-16T12:38:42.487Z,101267.09
2022-11-16T12:41:28.840Z,101272.38
2022-11-16T12:44:15.111Z,101265.75
2022-11-16T12:47:12.632Z,101273.00
2022-11-16T12:49:58.670Z,101259.78
2022-11-16T12:52:28.924Z,101260.13
2022-11-16T12:55:26.408Z,101260.44
2022-11-16T12:57:57.643Z,101265.19
2022-11-16T13:00:26.599Z,101266.31
2022-11-16T13:03:12.803Z,101263.66
2022-11-16T13:06:02.848Z,101258.03
2022-11-16T13:08:51.660Z,101262.13
2022-11-16T13:11:32.656Z,101261.94
2022-11-16T13:14:07.883Z,101255.13
2022-11-16T13:16:38.245Z,101250.44
2022-11-16T13:22:00.221Z,101237.16
2022-11-16T13:24:55.720Z,101234.34
2022-11-16T13:27:29.072Z,101232.31
2022-11-16T13:30:06.753Z,101227.31
2022-11-16T13:33:11.570Z,101232.56
2022-11-16T13:35:39.751Z,101233.19
2022-11-16T13:38:13.848Z,101227.59
2022-11-16T13:40:42.672Z,101235.69
2022-11-16T13:43:10.075Z,101235.69
2022-11-16T13:46:01.425Z,101233.19
2022-11-16T13:48:38.026Z,101235.69
2022-11-16T13:51:09.501Z,101235.44
2022-11-16T13:56:49.442Z,101238.56
2022-11-16T13:59:24.130Z,101239.00
2022-11-16T14:02:03.210Z,101240.47
2022-11-16T14:04:43.612Z,101237.72
2022-11-16T14:07:43.091Z,101232.59
2022-11-16T14:10:34.768Z,101239.88
2022-11-16T14:13:06.788Z,101241.44
2022-11-16T14:15:39.005Z,101251.00
2022-11-16T14:18:12.197Z,101242.78
2022-11-16T14:21:05.307Z,101246.06
2022-11-16T14:23:54.848Z,101240.25
2022-11-16T14:26:46.480Z,101237.47
2022-11-16T14:29:20.906Z,101238.28
2022-11-16T14:31:52.875Z,101236.09
2022-11-16T14:34:42.437Z,101235.81
2022-11-16T14:37:35.244Z,101242.06
2022-11-16T14:40:23.019Z,101234.44
2022-11-16T14:43:15.503Z,101239.34
2022-11-16T14:45:46.945Z,101241.31
2022-11-16T14:48:20.081Z,101233.69
2022-11-16T14:51:14.463Z,101236.09
2022-11-16T14:54:31.571Z,101243.88
2022-11-16T14:57:04.704Z,101233.63
2022-11-16T14:59:32.957Z,101228.91
2022-11-16T15:02:13.369Z,101216.44
2022-11-16T15:04:40.981Z,101223.06
2022-11-16T15:07:08.736Z,101217.50
2022-11-16T15:09:41.439Z,101228.41
2022-11-16T15:12:36.932Z,101225.47
2022-11-16T15:15:25.352Z,101227.06
2022-11-16T15:18:07.452Z,101229.41
2022-11-16T15:20:38.457Z,101226.44
2022-11-16T15:23:13.505Z,101226.31
2022-11-16T15:25:43.408Z,101229.31
2022-11-16T15:28:17.122Z,101235.09
2022-11-16T15:31:05.182Z,101227.72
2022-11-16T15:33:38.513Z,101222.00
2022-11-16T15:36:25.972Z,101226.94
2022-11-16T15:38:57.748Z,101232.75
2022-11-16T15:41:28.348Z,101224.31
2022-11-16T15:44:16.829Z,101224.16
2022-11-16T15:46:50.938Z,101228.47
2022-11-16T15:49:32.830Z,101229.44
2022-11-16T15:52:01.923Z,101232.75
2022-11-16T15:54:52.129Z,101230.78
2022-11-16T15:57:21.478Z,101228.84
2022-11-16T15:59:54.886Z,101226.34
2022-11-16T16:02:25.220Z,101218.88
2022-11-16T16:04:52.682Z,101224.16
2022-11-16T16:07:41.015Z,101220.53
2022-11-16T16:13:25.619Z,101218.28
2022-11-16T16:16:26.550Z,101211.03
2022-11-16T16:19:08.207Z,101213.00
2022-11-16T16:21:47.239Z,101217.28
2022-11-16T16:24:40.301Z,101218.09
2022-11-16T16:27:26.393Z,101215.31
2022-11-16T16:29:55.763Z,101219.31
2022-11-16T16:32:28.922Z,101210.44
2022-11-16T16:35:00.939Z,101209.75
2022-11-16T16:37:30.926Z,101206.13
2022-11-16T16:40:01.616Z,101200.84
2022-11-16T16:42:31.410Z,101202.81
2022-11-16T16:45:00.543Z,101201.84
2022-11-16T16:47:28.510Z,101195.72
2022-11-16T16:49:56.052Z,101194.22
2022-11-16T16:52:27.963Z,101193.25
2022-11-16T16:57:42.677Z,101172.78
2022-11-16T17:00:12.237Z,101177.41
2022-11-16T17:02:39.933Z,101175.91
2022-11-16T17:05:07.771Z,101177.78
2022-11-16T17:07:35.355Z,101172.66
2022-11-16T17:10:03.153Z,101168.69
2022-11-16T17:12:54.279Z,101165.44
2022-11-16T17:15:22.640Z,101169.06
2022-11-16T17:17:50.602Z,101171.19
2022-11-16T17:20:18.172Z,101170.06
2022-11-16T17:22:46.241Z,101163.66
2022-11-16T17:25:16.827Z,101162.84
2022-11-16T17:27:44.447Z,101165.00
2022-11-16T17:30:14.142Z,101166.34
2022-11-16T17:32:41.764Z,101160.22
2022-11-16T17:35:10.261Z,101158.28
2022-11-16T17:37:37.960Z,101166.03
2022-11-16T17:40:06.082Z,101153.97
2022-11-16T17:42:35.931Z,101158.13
2022-11-16T17:45:04.288Z,101153.19
2022-11-16T17:47:33.603Z,101154.34
2022-11-16T17:50:01.332Z,101151.72
2022-11-16T17:52:30.466Z,101149.56
2022-11-16T17:54:59.417Z,101150.69
2022-11-16T17:57:27.484Z,101146.09
2022-11-16T17:59:54.996Z,101141.78
2022-11-16T18:02:22.827Z,101140.97
2022-11-16T18:04:51.450Z,101145.41
2022-11-16T18:07:20.349Z,101139.97
2022-11-16T18:09:50.449Z,101141.97
2022-11-16T18:12:17.963Z,101135.03
2022-11-16T18:15:06.263Z,101128.94
2022-11-16T18:17:35.017Z,101125.47
2022-11-16T18:20:04.997Z,101124.94
2022-11-16T18:22:32.537Z,101129.41
2022-11-16T18:25:00.303Z,101131.38
2022-11-16T18:27:28.014Z,101115.50
2022-11-16T18:29:55.600Z,101126.25
2022-11-16T18:32:23.073Z,101120.81
2022-11-16T18:34:50.816Z,101110.59
2022-11-16T18:37:18.523Z,101099.38
2022-11-16T18:39:46.081Z,101102.84
2022-11-16T18:42:16.446Z,101092.44
2022-11-16T18:44:43.994Z,101108.09
2022-11-16T18:47:11.472Z,101112.56
2022-11-16T18:52:20.172Z,101098.69
2022-11-16T18:54:47.645Z,101086.63
2022-11-16T18:57:15.160Z,101085.81
2022-11-16T18:59:42.670Z,101075.06
2022-11-16T19:02:12.871Z,101078.31
2022-11-16T19:04:43.153Z,101083.78
2022-11-16T19:07:10.695Z,101073.53
2022-11-16T19:09:45.277Z,101081.22
2022-11-16T19:12:13.897Z,101075.97
2022-11-16T19:14:41.773Z,101076.78
2022-11-16T19:17:10.003Z,101088.84
2022-11-16T19:19:37.476Z,101090.34
2022-11-16T19:22:04.940Z,101087.34
2022-11-16T19:24:32.503Z,101079.13
2022-11-16T19:26:59.945Z,101081.59
2022-11-16T19:29:27.464Z,101088.69
2022-11-16T19:31:54.951Z,101088.00
2022-11-16T19:34:22.451Z,101094.25
2022-11-16T19:36:49.993Z,101079.41
2022-11-16T19:39:17.465Z,101086.34
2022-11-16T19:41:45.063Z,101085.91
2022-11-16T19:44:12.544Z,101082.59
2022-11-16T19:46:40.061Z,101080.44
2022-11-16T19:49:09.555Z,101081.41
2022-11-16T19:51:37.067Z,101089.00
2022-11-16T19:54:04.926Z,101076.13
2022-11-16T19:56:32.465Z,101090.16
2022-11-16T19:59:00.028Z,101089.31
2022-11-16T20:01:29.688Z,101083.69
2022-11-16T20:03:59.527Z,101084.66
2022-11-16T20:06:35.820Z,101079.09
2022-11-16T20:09:09.055Z,101077.72
2022-11-16T20:11:38.294Z,101076.06
2022-11-16T20:14:08.398Z,101084.50
2022-11-16T20:16:39.869Z,101073.81
2022-11-16T20:19:08.852Z,101081.56
2022-11-16T20:21:41.496Z,101077.44
2022-11-16T20:24:12.804Z,101078.78
2022-11-16T20:26:48.656Z,101080.44
2022-11-16T20:29:19.747Z,101073.31
2022-11-16T20:31:47.794Z,101070.50
2022-11-16T20:34:17.241Z,101080.69
2022-11-16T20:37:43.211Z,101080.19
2022-11-16T20:39:47.122Z,101065.63
2022-11-16T20:42:14.591Z,101073.41
2022-11-16T20:44:42.127Z,101071.88
2022-11-16T20:47:09.652Z,101080.63
2022-11-16T20:49:37.204Z,101067.09
2022-11-16T20:52:04.815Z,101068.09
2022-11-16T20:54:32.344Z,101072.69
2022-11-16T20:57:00.020Z,101068.53
2022-11-16T20:59:28.249Z,101066.06
2022-11-16T21:01:55.885Z,101060.97
2022-11-16T21:04:23.451Z,101068.09
2022-11-16T21:06:51.013Z,101063.13
2022-11-16T21:09:23.015Z,101065.97
2022-11-16T21:12:09.013Z,101066.47
2022-11-16T21:14:36.680Z,101065.19
2022-11-16T21:17:04.243Z,101061.19
2022-11-16T21:19:31.797Z,101059.88
2022-11-16T21:21:59.236Z,101054.41
2022-11-16T21:24:29.594Z,101050.97
2022-11-16T21:26:57.115Z,101058.22
2022-11-16T21:29:26.205Z,101047.69
2022-11-16T21:31:53.605Z,101038.78
2022-11-16T21:34:21.155Z,101031.34
2022-11-16T21:36:48.992Z,101037.75
2022-11-16T21:39:16.467Z,101028.66
2022-11-16T21:41:43.959Z,101032.78
2022-11-16T21:44:11.422Z,101033.44
2022-11-16T21:46:38.885Z,101025.53
2022-11-16T21:49:07.792Z,101033.63
2022-11-16T21:51:35.302Z,101035.59
2022-11-16T21:54:02.717Z,101033.94
2022-11-16T21:56:30.135Z,101036.41
2022-11-16T21:59:00.448Z,101034.91
2022-11-16T22:01:47.876Z,101034.09
2022-11-16T22:04:33.544Z,101025.88
2022-11-16T22:07:19.139Z,101022.25
2022-11-16T22:09:46.620Z,101013.03
2022-11-16T22:12:14.049Z,101015.81
2022-11-16T22:14:41.533Z,101013.03
2022-11-16T22:17:10.361Z,100981.84
2022-11-16T22:19:37.823Z,101014.34
2022-11-16T22:22:05.248Z,101006.06
2022-11-16T22:24:32.744Z,101007.72
2022-11-16T22:27:00.354Z,101005.75
2022-11-16T22:29:27.844Z,101001.00
2022-11-16T22:31:55.473Z,100991.47
2022-11-16T22:34:23.983Z,100991.91
2022-11-16T22:36:51.475Z,100986.50
2022-11-16T22:39:18.980Z,100995.91
2022-11-16T22:41:46.478Z,101003.59
2022-11-16T22:44:13.933Z,101006.06
2022-11-16T22:46:44.342Z,101012.03
2022-11-16T22:49:11.842Z,101004.72
2022-11-16T22:51:39.774Z,101007.69
2022-11-16T22:54:07.647Z,101005.66
2022-11-16T22:56:35.088Z,101008.53
2022-11-16T22:59:05.990Z,101020.06
2022-11-16T23:01:33.464Z,101021.53
2022-11-16T23:04:00.984Z,101021.31
2022-11-16T23:06:29.023Z,101018.59
2022-11-16T23:08:56.492Z,101015.91
2022-11-16T23:11:44.183Z,101008.63
2022-11-16T23:14:33.433Z,101009.47
2022-11-16T23:17:02.059Z,101011.84
2022-11-16T23:19:48.515Z,101009.22
2022-11-16T23:22:37.661Z,101009.91
2022-11-16T23:25:29.945Z,101017.94
2022-11-16T23:28:07.024Z,101017.75
2022-11-16T23:30:35.919Z,100999.91
2022-11-16T23:33:04.473Z,101012.75
2022-11-16T23:35:32.188Z,101018.66
2022-11-16T23:38:00.671Z,101012.16
2022-11-16T23:40:30.580Z,101017.91
2022-11-16T23:43:17.513Z,101017.50
2022-11-16T23:45:45.708Z,101009.91
2022-11-16T23:48:15.601Z,101002.63
2022-11-16T23:50:44.262Z,101007.75
2022-11-16T23:53:12.472Z,101013.97
2022-11-16T23:55:40.990Z,101008.31
2022-11-16T23:58:13.844Z,101009.16
